Time;durP1;ratioP1;P1;durP2;ratioP2;P2;SDS_P1;SDS_P2;PMS_P1;PMS_P2;Temp;Humidity;BMP_temperature;BMP_pressure;BME280_temperature;BME280_humidity;BME280_pressure;Samples;Min_cycle;Max_cycle;Signal;HPM_P1;HPM_P2
2021/03/28 00:00:00;;;;;;;7.80;2.30;;;;;;;9.03;53.37;102284.06;333675;29;71816;-65
2021/03/28 00:00:20;;;;;;;10.23;2.53;;;;;;;9.07;53.13;102275.22;333596;29;72600;-65
2021/03/28 00:00:58;;;;;;;8.27;2.40;;;;;;;8.97;53.58;102274.47;334847;29;72412;-65
2021/03/28 00:01:33;;;;;;;7.78;2.10;;;;;;;8.97;53.54;102283.25;334903;29;71621;-65
2021/03/28 00:02:12;;;;;;;7.50;2.08;;;;;;;8.98;54.19;102277.09;334942;29;69979;-65
2021/03/28 00:02:34;;;;;;;8.60;2.30;;;;;;;8.87;53.45;102271.09;334878;29;73005;-65
2021/03/28 00:02:53;;;;;;;7.95;2.25;;;;;;;8.90;54.03;102272.81;334964;29;72667;-65
2021/03/28 00:03:07;;;;;;;9.82;2.40;;;;;;;8.91;53.90;102275.44;334832;29;71476;-65
2021/03/28 00:03:56;;;;;;;10.82;2.40;;;;;;;8.94;53.20;102272.78;336494;29;25222;-65
2021/03/28 00:04:10;;;;;;;7.45;2.35;;;;;;;8.95;53.86;102265.72;334899;29;72308;-66
2021/03/28 00:04:24;;;;;;;7.50;2.22;;;;;;;8.94;54.14;102278.03;336472;29;25000;-65
2021/03/28 00:04:52;;;;;;;8.95;2.13;;;;;;;8.87;53.56;102270.25;336487;29;24873;-65
2021/03/28 00:05:07;;;;;;;9.18;2.40;;;;;;;8.90;53.57;102271.09;334861;29;71410;-66
2021/03/28 00:05:29;;;;;;;7.55;2.22;;;;;;;8.90;53.76;102271.09;336526;29;24046;-65
2021/03/28 00:05:40;;;;;;;7.45;1.90;;;;;;;8.86;54.22;102277.28;334951;29;70272;-65
2021/03/28 00:05:52;;;;;;;7.75;1.90;;;;;;;8.81;54.47;102266.81;337244;29;2205;-66
2021/03/28 00:06:32;;;;;;;8.90;2.20;;;;;;;8.93;54.03;102270.13;337350;29;1159;-65
2021/03/28 00:06:45;;;;;;;8.88;2.13;;;;;;;8.86;53.90;102271.13;334312;29;49187;-65
2021/03/28 00:07:04;;;;;;;9.27;2.25;;;;;;;8.79;53.43;102271.25;335050;29;30278;-65
2021/03/28 00:07:18;;;;;;;8.70;2.30;;;;;;;8.78;54.22;102279.16;338069;29;71662;-65
2021/03/28 00:07:45;;;;;;;7.22;1.88;;;;;;;8.75;54.25;102271.28;338524;29;47665;-66
2021/03/28 00:07:59;;;;;;;7.60;2.15;;;;;;;8.82;53.59;102270.31;337552;29;70815;-65
2021/03/28 00:08:13;;;;;;;8.63;2.40;;;;;;;8.82;53.76;102273.81;339274;29;22820;-65
2021/03/28 00:08:26;;;;;;;9.38;2.55;;;;;;;8.86;54.01;102277.28;339054;29;23629;-65
2021/03/28 00:08:42;;;;;;;8.70;2.50;;;;;;;8.83;54.06;102272.94;340225;29;1130;-65
2021/03/28 00:09:11;;;;;;;7.70;2.50;;;;;;;8.85;53.18;102272.91;338357;29;47678;-65
2021/03/28 00:09:28;;;;;;;10.10;2.97;;;;;;;8.93;54.25;102273.66;337592;29;71403;-65
2021/03/28 00:09:45;;;;;;;9.18;3.10;;;;;;;9.00;54.02;102277.94;337430;29;72023;-65
2021/03/28 00:09:58;;;;;;;9.07;2.97;;;;;;;9.07;53.99;102277.84;337574;29;72055;-65
2021/03/28 00:10:25;;;;;;;10.20;3.10;;;;;;;9.08;53.08;102276.94;341247;29;1082;-65
2021/03/28 00:10:43;;;;;;;10.68;2.72;;;;;;;9.05;53.19;102266.44;338635;29;70619;-65
2021/03/28 00:11:12;;;;;;;10.07;2.78;;;;;;;8.96;54.18;102270.09;340160;28;71533;-65
2021/03/28 00:11:24;;;;;;;8.07;2.30;;;;;;;8.92;53.79;102271.91;340104;28;72829;-65
2021/03/28 00:12:12;;;;;;;8.95;2.25;;;;;;;8.98;54.25;102274.47;342470;28;1091;-65
2021/03/28 00:12:41;;;;;;;7.18;2.30;;;;;;;8.97;54.13;102280.63;340155;28;70307;-65
2021/03/28 00:13:14;;;;;;;8.63;2.53;;;;;;;8.96;53.25;102278.88;340177;28;72553;-65
2021/03/28 00:13:28;;;;;;;8.05;2.20;;;;;;;8.89;54.15;102277.25;340090;28;72839;-65
2021/03/28 00:13:52;;;;;;;10.85;2.20;;;;;;;8.79;53.72;102270.34;340949;28;50264;-65
2021/03/28 00:14:04;;;;;;;7.13;1.65;;;;;;;8.78;54.36;102272.13;338870;29;71977;-65
2021/03/28 00:14:20;;;;;;;9.02;1.88;;;;;;;8.80;53.93;102272.97;341121;29;1084;-65
2021/03/28 00:14:49;;;;;;;10.98;2.40;;;;;;;8.85;54.10;102275.53;338836;29;73357;-65
2021/03/28 00:15:06;;;;;;;9.30;2.22;;;;;;;8.90;54.52;102271.09;338781;29;71299;-65
2021/03/28 00:15:20;;;;;;;9.18;2.33;;;;;;;8.97;54.39;102272.72;338801;29;72857;-65
2021/03/28 00:15:37;;;;;;;10.85;2.42;;;;;;;8.92;53.59;102274.56;339687;29;49157;-65
2021/03/28 00:15:57;;;;;;;11.60;2.38;;;;;;;8.86;53.84;102273.75;338896;29;71735;-65
2021/03/28 00:16:29;;;;;;;6.22;1.42;;;;;;;8.82;53.79;102270.31;340124;28;72485;-65
2021/03/28 00:16:47;;;;;;;7.25;2.15;;;;;;;8.84;54.47;102276.44;340109;28;73355;-65
2021/03/28 00:16:59;;;;;;;8.40;2.50;;;;;;;8.86;54.53;102271.13;340139;28;71619;-65
2021/03/28 00:17:19;;;;;;;7.50;2.40;;;;;;;8.95;54.46;102266.59;342495;28;1185;-65
2021/03/28 00:17:46;;;;;;;9.63;2.70;;;;;;;9.07;54.09;102264.66;339366;28;94896;-65
2021/03/28 00:18:15;;;;;;;9.93;2.60;;;;;;;9.16;54.58;102270.66;341357;28;70367;-65
2021/03/28 00:18:48;;;;;;;9.38;2.40;;;;;;;9.14;53.32;102264.53;341410;28;72777;-65
2021/03/28 00:19:10;;;;;;;9.35;2.30;;;;;;;9.18;53.57;102270.63;341377;28;71157;-65
2021/03/28 00:19:36;;;;;;;8.15;2.33;;;;;;;9.12;53.65;102258.41;340169;28;72460;-65
2021/03/28 00:19:56;;;;;;;8.40;2.50;;;;;;;9.17;53.40;102266.25;338835;29;70118;-66
2021/03/28 00:20:16;;;;;;;10.77;2.47;;;;;;;9.08;53.06;102267.28;338827;29;73097;-65
2021/03/28 00:20:31;;;;;;;7.57;2.25;;;;;;;8.96;53.95;102273.59;338781;29;72602;-65
2021/03/28 00:20:43;;;;;;;5.60;1.65;;;;;;;8.91;53.80;102274.56;340374;29;25145;-65
2021/03/28 00:21:18;;;;;;;5.35;1.48;;;;;;;8.80;54.31;102272.97;341133;29;1143;-65
2021/03/28 00:21:34;;;;;;;8.23;1.92;;;;;;;8.81;54.19;102268.59;338836;29;73128;-65
2021/03/28 00:21:56;;;;;;;7.88;2.00;;;;;;;8.82;54.26;102265.91;339477;29;50319;-65
2021/03/28 00:22:20;;;;;;;9.07;2.30;;;;;;;8.82;54.55;102273.81;338822;29;72902;-65
2021/03/28 00:22:35;;;;;;;9.40;2.30;;;;;;;8.82;54.49;102273.81;338808;28;70930;-65
2021/03/28 00:22:50;;;;;;;10.02;2.40;;;;;;;8.83;54.06;102272.03;343568;28;50223;-65
2021/03/28 00:23:07;;;;;;;10.20;2.17;;;;;;;8.87;54.02;102270.25;343663;28;49041;-65
2021/03/28 00:23:25;;;;;;;8.20;2.10;;;;;;;8.89;54.09;102274.59;342886;28;69817;-65
2021/03/28 00:23:57;;;;;;;7.55;2.20;;;;;;;8.96;54.23;102270.09;344202;28;70042;-65
2021/03/28 00:24:08;;;;;;;9.48;2.40;;;;;;;8.94;54.15;102275.41;344234;28;70639;-65
2021/03/28 00:24:34;;;;;;;7.85;2.28;;;;;;;8.91;53.54;102264.91;346569;28;1140;-66
2021/03/28 00:25:02;;;;;;;7.47;2.30;;;;;;;8.98;54.37;102271.84;344121;28;71821;-66
2021/03/28 00:25:33;;;;;;;9.50;2.33;;;;;;;8.98;53.50;102266.56;344147;28;72232;-65
2021/03/28 00:26:16;;;;;;;9.05;2.45;;;;;;;8.89;54.28;102269.34;344160;28;72113;-65
2021/03/28 00:27:02;;;;;;;8.95;2.15;;;;;;;8.89;54.06;102271.97;343866;28;76003;-65
2021/03/28 00:27:21;;;;;;;11.80;2.30;;;;;;;8.93;53.80;102263.13;344242;28;71499;-65
2021/03/28 00:27:43;;;;;;;10.90;2.38;;;;;;;8.92;53.74;102265.78;344192;28;73064;-65
2021/03/28 00:27:54;;;;;;;10.50;2.50;;;;;;;8.89;53.65;102271.97;344205;28;72499;-65
2021/03/28 00:28:10;;;;;;;10.75;2.50;;;;;;;8.92;53.90;102260.50;347351;28;1765;-65
2021/03/28 00:28:32;;;;;;;10.88;2.55;;;;;;;8.99;54.44;102263.00;344777;28;71027;-65
2021/03/28 00:28:47;;;;;;;9.02;2.70;;;;;;;8.96;53.73;102262.19;345490;28;70274;-65
2021/03/28 00:29:13;;;;;;;7.82;2.42;;;;;;;8.94;54.04;102267.50;346261;28;48951;-65
2021/03/28 00:29:25;;;;;;;8.70;2.35;;;;;;;8.92;54.22;102269.28;345157;28;73097;-65
2021/03/28 00:29:57;;;;;;;8.65;2.22;;;;;;;8.87;54.08;102279.00;347975;28;1114;-65
2021/03/28 00:30:24;;;;;;;7.25;1.83;;;;;;;8.76;53.86;102271.25;345442;28;72747;-65
2021/03/28 00:30:41;;;;;;;6.43;1.58;;;;;;;8.82;54.07;102270.31;345542;28;71810;-65
2021/03/28 00:31:09;;;;;;;7.97;2.40;;;;;;;8.76;54.00;102266.00;345535;28;71832;-65
2021/03/28 00:31:28;;;;;;;8.65;2.60;;;;;;;8.77;53.83;102262.47;345535;28;72881;-65
2021/03/28 00:32:01;;;;;;;8.73;2.67;;;;;;;8.87;54.19;102267.59;344176;28;72981;-65
2021/03/28 00:32:19;;;;;;;8.02;2.63;;;;;;;8.83;54.12;102267.66;344173;28;73104;-65
2021/03/28 00:32:44;;;;;;;7.88;2.30;;;;;;;8.81;54.29;102266.81;344115;28;72884;-65
2021/03/28 00:33:04;;;;;;;8.95;2.40;;;;;;;8.80;53.87;102272.97;344051;28;72403;-65
2021/03/28 00:33:21;;;;;;;8.95;2.30;;;;;;;8.71;54.47;102270.47;344195;28;71713;-65
2021/03/28 00:33:34;;;;;;;9.68;1.98;;;;;;;8.69;54.00;102272.25;344186;28;72719;-65
2021/03/28 00:34:00;;;;;;;9.48;2.10;;;;;;;8.72;54.28;102271.34;346426;28;2525;-66
2021/03/28 00:34:22;;;;;;;8.10;2.30;;;;;;;8.72;54.34;102272.19;345213;28;71581;-66
2021/03/28 00:34:40;;;;;;;6.10;1.77;;;;;;;8.73;54.14;102273.09;344774;28;92676;-66
2021/03/28 00:35:05;;;;;;;9.96;2.26;;;;;;;8.83;54.49;102275.56;344624;28;95774;-65
2021/03/28 00:35:25;;;;;;;11.57;2.92;;;;;;;8.97;54.15;102275.34;345524;28;71530;-66
2021/03/28 00:35:59;;;;;;;8.48;2.40;;;;;;;8.97;53.81;102269.19;349738;28;72722;-65
2021/03/28 00:36:16;;;;;;;8.88;2.15;;;;;;;8.91;53.74;102264.91;349736;28;72762;-64
2021/03/28 00:36:42;;;;;;;9.30;2.25;;;;;;;8.94;53.78;102270.13;349704;28;72739;-65
2021/03/28 00:37:00;;;;;;;8.50;2.42;;;;;;;8.97;53.18;102271.81;349747;28;72312;-65
2021/03/28 00:37:11;;;;;;;9.25;2.30;;;;;;;8.91;53.86;102274.56;349574;28;76202;-65
2021/03/28 00:37:28;;;;;;;11.38;2.25;;;;;;;8.87;53.53;102268.47;352211;28;1150;-64
2021/03/28 00:37:44;;;;;;;10.00;2.30;;;;;;;8.92;54.03;102273.69;351186;27;70752;-65
2021/03/28 00:38:04;;;;;;;7.38;2.38;;;;;;;8.88;53.59;102269.34;349783;28;72263;-65
2021/03/28 00:38:23;;;;;;;7.72;2.33;;;;;;;8.77;53.86;102272.16;349777;28;71491;-65
2021/03/28 00:38:37;;;;;;;8.25;2.10;;;;;;;8.73;54.17;102268.69;349683;28;75297;-65
2021/03/28 00:38:54;;;;;;;9.02;2.08;;;;;;;8.72;53.59;102266.06;349886;28;23875;-65
2021/03/28 00:39:10;;;;;;;9.65;2.20;;;;;;;8.78;54.39;102274.75;348316;28;72169;-65
2021/03/28 00:39:57;;;;;;;9.20;2.30;;;;;;;8.72;54.05;102269.56;348415;28;71453;-64
2021/03/28 00:40:08;;;;;;;8.02;2.08;;;;;;;8.77;53.84;102274.78;349805;28;71464;-65
2021/03/28 00:40:22;;;;;;;9.70;2.20;;;;;;;8.76;54.00;102268.63;352170;28;1084;-65
2021/03/28 00:40:34;;;;;;;9.63;2.40;;;;;;;8.82;53.47;102271.19;351383;28;24170;-65
2021/03/28 00:41:21;;;;;;;8.18;2.40;;;;;;;8.94;53.82;102272.78;352896;28;1126;-64
2021/03/28 00:41:52;;;;;;;10.68;2.15;;;;;;;8.92;54.03;102269.28;345490;28;71773;-65
2021/03/28 00:42:28;;;;;;;6.38;2.13;;;;;;;9.02;53.79;102271.78;351208;28;72715;-65
2021/03/28 00:42:48;;;;;;;8.18;2.20;;;;;;;8.87;53.58;102267.59;351267;28;71612;-64
2021/03/28 00:43:12;;;;;;;8.05;2.10;;;;;;;8.83;53.51;102270.31;351289;28;70469;-65
2021/03/28 00:43:23;;;;;;;7.85;2.10;;;;;;;8.86;53.94;102272.03;351065;28;76061;-64
2021/03/28 00:43:49;;;;;;;7.42;1.96;;;;;;;8.88;53.27;102262.31;353663;28;1185;-64
2021/03/28 00:44:19;;;;;;;9.25;2.05;;;;;;;8.81;53.44;102265.94;351224;28;71359;-64
2021/03/28 00:44:31;;;;;;;4.68;1.58;;;;;;;8.76;54.07;102270.41;351415;28;65833;-64
2021/03/28 00:44:50;;;;;;;6.45;1.67;;;;;;;8.77;54.04;102265.09;353654;28;1833;-65
2021/03/28 00:45:33;;;;;;;10.13;2.10;;;;;;;8.83;53.34;102264.16;351185;28;72603;-65
2021/03/28 00:45:44;;;;;;;8.07;2.20;;;;;;;8.84;54.04;102271.16;351176;28;72900;-65
2021/03/28 00:45:57;;;;;;;7.88;2.08;;;;;;;8.82;53.80;102267.69;352156;28;1160;-64
2021/03/28 00:46:09;;;;;;;7.95;1.90;;;;;;;8.79;53.25;102262.44;351268;28;24726;-65
2021/03/28 00:46:31;;;;;;;8.57;1.98;;;;;;;8.82;53.87;102265.06;352194;28;1120;-64
2021/03/28 00:46:57;;;;;;;9.45;2.40;;;;;;;8.78;53.13;102266.84;348250;28;72481;-65
2021/03/28 00:47:11;;;;;;;9.38;2.47;;;;;;;8.79;54.24;102270.34;348193;28;74173;-65
2021/03/28 00:47:30;;;;;;;8.60;2.47;;;;;;;8.80;53.72;102262.41;349984;28;25583;-65
2021/03/28 00:47:48;;;;;;;9.02;2.10;;;;;;;8.82;54.16;102271.19;348343;28;70610;-64
2021/03/28 00:48:02;;;;;;;9.73;2.35;;;;;;;8.82;53.86;102268.56;349746;28;71017;-65
2021/03/28 00:48:19;;;;;;;10.70;2.50;;;;;;;8.83;54.05;102264.16;351430;28;22427;-65
2021/03/28 00:48:34;;;;;;;9.88;1.95;;;;;;;8.81;53.32;102263.31;349717;28;71866;-65
2021/03/28 00:48:54;;;;;;;8.30;1.90;;;;;;;8.80;54.39;102266.84;352740;28;23843;-65
2021/03/28 00:49:09;;;;;;;6.00;2.03;;;;;;;8.78;54.08;102269.50;351029;27;71584;-65
2021/03/28 00:49:40;;;;;;;9.68;2.28;;;;;;;8.82;54.25;102270.31;352047;28;49426;-65
2021/03/28 00:50:28;;;;;;;7.82;2.15;;;;;;;8.91;53.41;102262.25;351182;28;72464;-64
2021/03/28 00:50:50;;;;;;;8.02;2.10;;;;;;;8.98;53.75;102260.41;345489;28;70440;-65
2021/03/28 00:51:13;;;;;;;7.78;2.22;;;;;;;9.11;54.39;102263.72;348619;28;95912;-65
2021/03/28 00:51:26;;;;;;;11.40;2.60;;;;;;;9.14;54.48;102258.41;351229;28;72627;-65
2021/03/28 00:51:46;;;;;;;10.75;2.38;;;;;;;9.05;52.95;102259.41;353396;28;4034;-65
2021/03/28 00:52:03;;;;;;;9.07;1.92;;;;;;;8.96;53.75;102264.84;351285;28;72586;-64
2021/03/28 00:52:17;;;;;;;9.80;2.00;;;;;;;8.94;53.42;102266.63;351174;28;72661;-65
2021/03/28 00:52:33;;;;;;;8.35;2.20;;;;;;;8.93;53.50;102264.88;352859;28;23951;-65
2021/03/28 00:52:55;;;;;;;8.27;2.45;;;;;;;8.90;53.39;102265.81;351306;28;71155;-65
2021/03/28 00:53:11;;;;;;;8.82;2.33;;;;;;;8.89;52.76;102265.81;349770;28;71525;-65
2021/03/28 00:53:34;;;;;;;9.57;1.98;;;;;;;8.91;53.91;102264.03;348322;28;70533;-64
2021/03/28 00:54:10;;;;;;;10.90;2.00;;;;;;;8.88;54.10;102256.19;348444;28;69264;-65
2021/03/28 00:54:45;;;;;;;6.88;1.83;;;;;;;8.83;53.96;102270.31;348371;28;69869;-65
2021/03/28 00:55:10;;;;;;;8.07;2.22;;;;;;;8.89;53.59;102261.44;348373;28;71495;-64
2021/03/28 00:55:26;;;;;;;9.98;2.42;;;;;;;8.89;53.96;102271.06;350812;27;72484;-64
2021/03/28 00:55:41;;;;;;;12.57;2.72;;;;;;;8.89;53.52;102265.81;351241;28;73251;-65
2021/03/28 00:55:59;;;;;;;8.98;2.42;;;;;;;8.93;53.54;102252.59;352069;28;49528;-64
2021/03/28 00:56:18;;;;;;;8.25;2.30;;;;;;;8.99;53.97;102270.91;349718;28;73120;-65
2021/03/28 00:56:48;;;;;;;7.88;2.25;;;;;;;8.85;54.32;102262.38;349696;28;70775;-65
2021/03/28 00:57:02;;;;;;;8.18;1.95;;;;;;;8.80;53.49;102264.19;349730;28;72458;-64
2021/03/28 00:57:23;;;;;;;9.00;2.03;;;;;;;8.76;53.71;102271.25;351948;28;5742;-64
2021/03/28 00:57:40;;;;;;;9.74;2.04;;;;;;;8.80;54.21;102266.84;348868;28;99265;-65
2021/03/28 00:58:24;;;;;;;8.70;2.22;;;;;;;8.86;53.91;102266.75;350052;28;70980;-64
2021/03/28 00:58:51;;;;;;;8.82;2.30;;;;;;;8.93;53.88;102271.03;351307;27;72454;-65
2021/03/28 00:59:13;;;;;;;9.68;2.40;;;;;;;8.86;53.46;102261.47;351343;27;73364;-65
2021/03/28 00:59:30;;;;;;;9.93;2.50;;;;;;;8.86;53.67;102264.13;351436;27;72397;-66
2021/03/28 01:00:32;;;;;;;10.20;2.40;;;;;;;8.88;53.51;102258.81;352447;27;72518;-65
2021/03/28 01:00:46;;;;;;;9.05;2.25;;;;;;;8.80;53.74;102266.84;351348;27;71444;-65
2021/03/28 01:01:25;;;;;;;8.82;2.38;;;;;;;8.79;53.52;102262.44;353088;27;25030;-64
2021/03/28 01:01:56;;;;;;;10.25;1.85;;;;;;;8.78;53.57;102268.63;351639;27;68479;-65
2021/03/28 01:02:15;;;;;;;11.70;1.98;;;;;;;8.82;53.86;102260.66;349990;28;72658;-65
2021/03/28 01:02:32;;;;;;;11.48;2.30;;;;;;;8.82;53.32;102265.06;349923;28;73156;-65
2021/03/28 01:03:03;;;;;;;7.40;2.13;;;;;;;8.86;54.11;102261.47;349892;28;72675;-65
2021/03/28 01:03:35;;;;;;;7.30;2.15;;;;;;;8.79;53.96;102262.44;348579;28;72541;-64
2021/03/28 01:03:59;;;;;;;7.88;1.77;;;;;;;8.83;53.86;102258.88;348569;28;69097;-65
2021/03/28 01:04:38;;;;;;;8.85;2.28;;;;;;;8.88;53.81;102259.69;350011;28;72371;-65
2021/03/28 01:05:11;;;;;;;10.18;2.17;;;;;;;8.86;53.47;102260.59;348624;28;71395;-65
2021/03/28 01:05:40;;;;;;;8.27;2.30;;;;;;;8.93;54.27;102252.59;350010;28;71831;-65
2021/03/28 01:05:56;;;;;;;8.57;2.25;;;;;;;8.94;53.38;102248.16;350004;28;72425;-64
2021/03/28 01:06:16;;;;;;;8.95;2.20;;;;;;;9.00;53.52;102254.22;348625;28;72642;-65
2021/03/28 01:06:42;;;;;;;10.18;2.35;;;;;;;9.00;53.79;102254.22;348425;28;73690;-65
2021/03/28 01:07:21;;;;;;;8.43;2.08;;;;;;;8.73;53.58;102257.28;349956;28;72165;-65
2021/03/28 01:07:47;;;;;;;7.47;1.80;;;;;;;8.63;54.42;102253.94;349972;28;71179;-65
2021/03/28 01:08:11;;;;;;;9.00;2.03;;;;;;;8.65;54.42;102253.00;350002;28;72543;-65
2021/03/28 01:08:30;;;;;;;9.20;2.33;;;;;;;8.70;54.07;102252.06;351450;27;72474;-64
2021/03/28 01:08:52;;;;;;;9.20;2.42;;;;;;;8.78;54.16;102261.59;351416;27;72674;-65
2021/03/28 01:09:06;;;;;;;10.00;2.38;;;;;;;8.76;54.31;102254.59;351511;27;72730;-64
2021/03/28 01:09:38;;;;;;;9.20;2.30;;;;;;;8.80;53.84;102251.03;352310;27;48103;-64
2021/03/28 01:10:21;;;;;;;9.27;2.35;;;;;;;8.90;53.64;102252.63;349844;28;71699;-64
2021/03/28 01:10:38;;;;;;;9.80;2.28;;;;;;;8.79;53.48;102258.06;349900;28;72518;-64
2021/03/28 01:11:04;;;;;;;10.85;2.50;;;;;;;8.81;54.17;102256.25;350059;28;70293;-65
2021/03/28 01:11:52;;;;;;;8.48;2.35;;;;;;;8.94;54.55;102259.59;349872;28;72495;-65
2021/03/28 01:12:41;;;;;;;11.68;2.33;;;;;;;9.03;54.47;102255.06;349925;28;72687;-65
2021/03/28 01:13:23;;;;;;;7.38;2.20;;;;;;;8.96;53.25;102252.53;349982;28;72386;-64
2021/03/28 01:14:19;;;;;;;8.55;2.22;;;;;;;9.04;54.00;102246.25;349950;28;72469;-65
2021/03/28 01:14:41;;;;;;;8.27;2.08;;;;;;;9.08;54.08;102248.81;344248;28;75971;-65
2021/03/28 01:15:21;;;;;;;9.75;2.60;;;;;;;9.09;53.99;102249.69;344313;28;71964;-66
2021/03/28 01:16:10;;;;;;;9.35;2.35;;;;;;;9.06;53.57;102252.38;344401;28;71452;-65
2021/03/28 01:16:34;;;;;;;4.85;1.67;;;;;;;8.69;53.75;102253.81;344279;28;72541;-65
2021/03/28 01:17:10;;;;;;;6.20;1.73;;;;;;;8.65;54.15;102265.28;344297;28;70651;-65
2021/03/28 01:17:40;;;;;;;8.68;2.25;;;;;;;8.75;54.22;102260.75;343030;28;72241;-64
2021/03/28 01:17:59;;;;;;;9.52;2.63;;;;;;;8.77;53.59;102256.34;343021;28;71869;-64
2021/03/28 01:18:29;;;;;;;9.52;2.17;;;;;;;8.61;53.68;102259.22;343084;28;71718;-65
2021/03/28 01:19:04;;;;;;;7.88;1.83;;;;;;;8.68;53.85;102261.75;342792;28;72711;-65
2021/03/28 01:19:55;;;;;;;9.60;2.42;;;;;;;8.85;54.31;102261.47;343063;28;71590;-64
2021/03/28 01:20:24;;;;;;;10.23;2.17;;;;;;;8.84;53.56;102260.63;343099;28;72466;-65
2021/03/28 01:20:50;;;;;;;9.52;2.35;;;;;;;8.88;54.20;102266.72;342921;28;72464;-65
2021/03/28 01:21:16;;;;;;;8.98;2.20;;;;;;;8.91;54.07;102258.75;343005;28;72896;-64
2021/03/28 01:22:06;;;;;;;9.38;1.98;;;;;;;8.74;53.79;102257.25;344357;28;72527;-64
2021/03/28 01:22:40;;;;;;;8.40;2.08;;;;;;;8.89;54.54;102261.44;343025;28;72677;-65
2021/03/28 01:23:22;;;;;;;7.97;2.10;;;;;;;8.82;53.76;102265.06;343050;28;72284;-65
2021/03/28 01:23:45;;;;;;;6.90;1.98;;;;;;;8.66;53.41;102260.00;344396;28;72496;-64
2021/03/28 01:24:25;;;;;;;7.20;1.98;;;;;;;8.59;54.08;102258.34;344394;28;72241;-65
2021/03/28 01:24:46;;;;;;;7.75;1.90;;;;;;;8.52;54.35;102259.34;344355;28;72532;-65
2021/03/28 01:25:35;;;;;;;8.48;1.80;;;;;;;8.51;54.45;102260.22;343026;28;72782;-65
2021/03/28 01:25:48;;;;;;;8.90;2.10;;;;;;;8.53;54.31;102258.47;343015;28;72150;-64
2021/03/28 01:26:14;;;;;;;7.97;1.88;;;;;;;8.48;54.28;102258.50;344616;28;24971;-64
2021/03/28 01:26:41;;;;;;;6.63;2.20;;;;;;;8.43;54.44;102254.16;343034;28;72460;-64
2021/03/28 01:27:17;;;;;;;6.32;1.58;;;;;;;8.35;54.45;102258.66;343474;28;71469;-64
2021/03/28 01:27:50;;;;;;;9.36;2.28;;;;;;;8.43;54.79;102246.25;344474;28;69647;-65
2021/03/28 01:28:22;;;;;;;11.48;2.10;;;;;;;8.45;54.61;102245.38;344270;28;72767;-65
2021/03/28 01:28:49;;;;;;;8.93;2.25;;;;;;;8.42;54.50;102249.78;344373;28;72429;-65
2021/03/28 01:29:13;;;;;;;10.36;2.60;;;;;;;8.44;54.72;102242.75;343562;28;95575;-64
2021/03/28 01:29:30;;;;;;;8.73;2.20;;;;;;;8.43;54.89;102247.13;344370;28;72437;-64
2021/03/28 01:29:53;;;;;;;7.78;2.20;;;;;;;8.40;54.81;102247.19;344346;28;73163;-65
2021/03/28 01:30:10;;;;;;;8.13;2.13;;;;;;;8.43;54.48;102241.84;344278;28;76491;-64
2021/03/28 01:30:35;;;;;;;9.40;2.40;;;;;;;8.44;54.96;102248.00;343012;28;72556;-64
2021/03/28 01:31:22;;;;;;;9.60;2.40;;;;;;;8.49;54.75;102238.31;343054;28;72398;-64
2021/03/28 01:31:46;;;;;;;11.23;2.20;;;;;;;8.57;54.90;102240.81;344399;28;72762;-65
2021/03/28 01:32:20;;;;;;;9.65;2.42;;;;;;;8.53;54.53;102242.66;344020;28;72396;-65
2021/03/28 01:32:35;;;;;;;8.50;2.15;;;;;;;8.42;54.50;102241.88;342923;28;71901;-64
2021/03/28 01:32:53;;;;;;;6.60;1.78;;;;;;;8.48;54.60;102241.84;344406;28;25195;-65
2021/03/28 01:33:17;;;;;;;8.30;1.95;;;;;;;8.52;54.82;102240.03;343001;28;72761;-66
2021/03/28 01:33:41;;;;;;;11.23;2.30;;;;;;;8.44;54.30;102234.84;343143;28;68597;-65
2021/03/28 01:34:15;;;;;;;9.45;2.33;;;;;;;8.42;54.73;102240.13;342892;28;71705;-65
2021/03/28 01:34:32;;;;;;;7.38;2.08;;;;;;;8.38;54.80;102240.19;342573;28;72391;-64
2021/03/28 01:34:49;;;;;;;7.28;1.90;;;;;;;8.31;54.67;102237.66;343030;28;72483;-65
2021/03/28 01:35:05;;;;;;;9.35;2.05;;;;;;;8.27;54.79;102235.94;342964;28;72780;-64
2021/03/28 01:35:25;;;;;;;7.60;2.00;;;;;;;8.30;55.11;102240.31;343016;28;72895;-64
2021/03/28 01:35:58;;;;;;;7.88;2.22;;;;;;;8.42;55.91;102233.97;342999;28;70615;-65
2021/03/28 01:36:18;;;;;;;11.14;2.66;;;;;;;8.49;54.98;102240.97;342281;28;95761;-65
2021/03/28 01:36:36;;;;;;;9.35;2.20;;;;;;;8.48;54.86;102241.84;342985;28;71414;-64
2021/03/28 01:37:02;;;;;;;8.40;1.92;;;;;;;8.30;54.67;102232.41;342973;28;72708;-64
2021/03/28 01:37:21;;;;;;;9.66;2.22;;;;;;;8.26;54.81;102231.56;342218;28;96004;-65
2021/03/28 01:37:48;;;;;;;7.47;1.65;;;;;;;8.19;54.91;102243.09;342975;28;72746;-64
2021/03/28 01:38:16;;;;;;;9.65;2.30;;;;;;;8.22;55.39;102239.53;342996;28;72557;-64
2021/03/28 01:38:38;;;;;;;8.93;2.20;;;;;;;8.23;55.08;102236.00;341604;28;72198;-65
2021/03/28 01:39:01;;;;;;;7.65;1.90;;;;;;;8.29;55.11;102230.66;341630;28;71649;-65
2021/03/28 01:39:14;;;;;;;8.02;2.05;;;;;;;8.28;55.12;102242.06;341539;28;72346;-65
2021/03/28 01:39:35;;;;;;;8.48;2.05;;;;;;;8.27;55.09;102240.31;343206;28;25424;-65
2021/03/28 01:39:50;;;;;;;8.77;2.20;;;;;;;8.32;55.36;102236.78;341634;28;72889;-65
2021/03/28 01:40:12;;;;;;;8.77;2.15;;;;;;;8.28;55.13;102235.06;342474;28;46862;-65
2021/03/28 01:40:28;;;;;;;9.85;2.20;;;;;;;8.25;54.91;102242.13;342264;28;70473;-65
2021/03/28 01:40:47;;;;;;;9.77;2.22;;;;;;;8.24;55.17;102236.00;343048;28;72155;-65
2021/03/28 01:41:05;;;;;;;10.38;2.30;;;;;;;8.18;55.17;102235.22;341880;28;71854;-65
2021/03/28 01:41:22;;;;;;;8.20;1.83;;;;;;;8.12;55.79;102237.03;341619;28;71893;-65
2021/03/28 01:41:39;;;;;;;6.03;1.60;;;;;;;8.15;55.42;102236.13;340342;28;71926;-65
2021/03/28 01:42:00;;;;;;;7.60;1.80;;;;;;;8.17;55.39;102239.59;340376;28;70712;-65
2021/03/28 01:42:39;;;;;;;8.48;2.28;;;;;;;8.25;54.83;102235.09;340397;28;71609;-63
2021/03/28 01:43:05;;;;;;;8.68;2.15;;;;;;;8.26;55.75;102241.25;340295;28;71908;-65
2021/03/28 01:43:38;;;;;;;9.00;2.42;;;;;;;8.38;55.58;102234.91;340329;28;72532;-64
2021/03/28 01:44:01;;;;;;;8.02;2.20;;;;;;;8.40;55.26;102233.16;340227;28;71153;-64
2021/03/28 01:44:19;;;;;;;8.48;2.10;;;;;;;8.35;55.74;102240.25;340212;28;75929;-65
2021/03/28 01:44:51;;;;;;;7.30;2.10;;;;;;;8.29;55.21;102239.41;340370;28;72732;-65
2021/03/28 01:45:17;;;;;;;8.98;2.13;;;;;;;8.25;54.78;102250.88;340302;28;72598;-65
2021/03/28 01:45:52;;;;;;;8.52;2.00;;;;;;;8.23;55.35;102247.41;340291;28;70662;-64
2021/03/28 01:46:35;;;;;;;10.88;2.10;;;;;;;8.35;54.88;102248.13;340291;28;72621;-65
2021/03/28 01:47:04;;;;;;;8.13;1.92;;;;;;;8.29;55.06;102242.06;340269;28;72472;-64
2021/03/28 01:48:01;;;;;;;8.68;2.13;;;;;;;8.36;55.52;102244.63;342770;28;37388;-65
2021/03/28 01:48:20;;;;;;;8.95;2.22;;;;;;;8.33;55.63;102245.53;341657;28;72522;-65
2021/03/28 01:48:55;;;;;;;9.52;2.38;;;;;;;8.30;54.92;102251.69;340864;28;95668;-65
2021/03/28 01:49:30;;;;;;;10.23;2.10;;;;;;;8.38;55.08;102245.44;341284;28;72366;-65
2021/03/28 01:50:11;;;;;;;10.93;2.45;;;;;;;8.39;54.87;102249.84;340469;28;72549;-65
2021/03/28 01:50:44;;;;;;;9.85;2.42;;;;;;;8.28;54.72;102253.50;341473;28;72695;-65
2021/03/28 01:51:14;;;;;;;10.42;2.28;;;;;;;8.24;54.93;102246.53;336760;29;95488;-65
2021/03/28 01:51:34;;;;;;;10.80;2.10;;;;;;;8.24;55.02;102254.44;341476;28;71627;-65
2021/03/28 01:51:53;;;;;;;9.57;2.00;;;;;;;8.24;55.18;102246.53;340394;28;70237;-65
2021/03/28 01:52:40;;;;;;;8.10;2.20;;;;;;;8.25;55.20;102242.13;341851;28;72402;-64
2021/03/28 01:53:07;;;;;;;7.80;2.20;;;;;;;8.28;55.55;102244.72;340274;28;70257;-65
2021/03/28 01:53:46;;;;;;;9.05;2.20;;;;;;;8.32;55.45;102254.31;339966;28;72358;-65
2021/03/28 01:54:23;;;;;;;7.07;2.05;;;;;;;8.26;54.87;102255.25;340602;28;71735;-65
2021/03/28 01:54:39;;;;;;;6.72;1.58;;;;;;;8.11;54.99;102247.56;341701;28;69398;-65
2021/03/28 01:55:05;;;;;;;7.30;1.70;;;;;;;8.14;55.43;102240.50;341560;28;72109;-65
2021/03/28 01:55:31;;;;;;;8.88;2.20;;;;;;;8.13;55.19;102248.41;341567;28;72465;-65
2021/03/28 01:55:58;;;;;;;9.66;2.34;;;;;;;8.19;54.95;102242.19;340866;28;94899;-65
2021/03/28 01:56:19;;;;;;;11.15;2.20;;;;;;;8.13;55.12;102241.41;341574;28;72386;-64
2021/03/28 01:56:54;;;;;;;8.65;1.73;;;;;;;8.06;55.33;102252.00;341605;28;72993;-65
2021/03/28 01:57:31;;;;;;;6.18;1.60;;;;;;;8.03;55.37;102246.78;341613;28;72254;-65